Time;durP1;ratioP1;P1;durP2;ratioP2;P2;SDS_P1;SDS_P2;PMS_P1;PMS_P2;Temp;Humidity;BMP_temperature;BMP_pressure;BME280_temperature;BME280_humidity;BME280_pressure;Samples;Min_cycle;Max_cycle;Signal;HPM_P1;HPM_P2
2021/05/31 00:02:05;;;;;;;9.02;4.57;;;;;;;19.33;64.28;100897.44;5071289;28;20328;-66
2021/05/31 00:04:34;;;;;;;8.57;4.10;;;;;;;19.22;64.71;100896.75;5071400;28;20123;-66
2021/05/31 00:07:04;;;;;;;8.52;3.90;;;;;;;19.26;64.48;100890.41;5071705;28;20043;-66
2021/05/31 00:09:33;;;;;;;6.68;3.55;;;;;;;19.27;64.53;100896.66;5071294;28;20062;-67
2021/05/31 00:12:01;;;;;;;6.63;3.40;;;;;;;19.34;64.26;100892.97;5071258;28;20118;-66
2021/05/31 00:14:28;;;;;;;5.97;3.40;;;;;;;19.36;64.02;100888.47;5069977;28;20051;-66
2021/05/31 00:16:55;;;;;;;8.13;3.53;;;;;;;19.40;64.03;100887.50;5070763;28;20116;-66
2021/05/31 00:19:23;;;;;;;7.50;3.80;;;;;;;19.41;63.80;100886.59;5070530;28;20088;-66
2021/05/31 00:21:51;;;;;;;7.68;3.40;;;;;;;19.34;64.06;100890.28;5071186;28;20036;-66
2021/05/31 00:24:19;;;;;;;5.32;2.95;;;;;;;19.23;64.28;100893.13;5070137;28;20516;-66
2021/05/31 00:26:46;;;;;;;11.15;4.15;;;;;;;19.13;64.59;100886.19;5070976;28;20041;-66
2021/05/31 00:29:15;;;;;;;8.43;4.22;;;;;;;19.04;64.80;100886.34;5070752;28;20123;-66
2021/05/31 00:31:43;;;;;;;7.70;3.60;;;;;;;18.96;64.96;100886.50;5070364;28;20047;-66
2021/05/31 00:34:10;;;;;;;8.85;4.13;;;;;;;18.91;65.06;100874.06;5070719;28;20524;-66
2021/05/31 00:36:37;;;;;;;7.03;3.70;;;;;;;18.76;65.29;100877.91;5069855;28;20507;-67
2021/05/31 00:39:05;;;;;;;6.70;3.80;;;;;;;18.70;65.80;100878.00;5070210;28;20043;-66
2021/05/31 00:41:32;;;;;;;10.05;4.13;;;;;;;18.83;65.31;100887.59;5070376;28;20041;-66
2021/05/31 00:43:59;;;;;;;6.18;4.05;;;;;;;18.86;65.13;100884.88;5070719;28;20170;-66
2021/05/31 00:46:27;;;;;;;7.40;3.75;;;;;;;18.85;65.23;100885.75;5069968;28;20044;-66
2021/05/31 00:48:53;;;;;;;11.18;4.00;;;;;;;18.83;65.24;100884.03;5070460;28;20186;-66
2021/05/31 00:51:21;;;;;;;9.57;3.80;;;;;;;18.92;65.21;100876.72;5069834;28;20048;-65
2021/05/31 00:53:48;;;;;;;6.85;3.33;;;;;;;19.00;64.80;100884.63;5069881;28;20036;-66
2021/05/31 00:56:18;;;;;;;6.43;3.70;;;;;;;19.04;64.59;100876.50;5070418;28;20072;-66
2021/05/31 00:58:45;;;;;;;7.90;3.85;;;;;;;18.99;64.78;100874.84;5068497;28;20075;-66
2021/05/31 01:01:14;;;;;;;8.85;4.03;;;;;;;18.90;65.07;100870.53;5069011;28;20036;-66
2021/05/31 01:03:42;;;;;;;6.95;3.58;;;;;;;18.87;65.02;100859.88;5070375;28;20089;-66
2021/05/31 01:06:12;;;;;;;6.82;3.85;;;;;;;18.93;65.00;100875.81;5069850;28;20131;-66
2021/05/31 01:08:46;;;;;;;6.75;3.97;;;;;;;18.82;65.23;100871.56;5069784;28;20127;-66
2021/05/31 01:11:17;;;;;;;8.80;4.03;;;;;;;18.70;65.53;100872.66;5070153;28;20052;-66
2021/05/31 01:13:49;;;;;;;8.45;3.65;;;;;;;18.57;65.97;100871.09;5069519;28;20061;-66
2021/05/31 01:16:22;;;;;;;8.15;4.07;;;;;;;18.65;65.95;100864.69;5069564;28;20407;-66
2021/05/31 01:18:50;;;;;;;5.45;3.35;;;;;;;18.73;65.28;100859.22;5070003;28;20074;-67
2021/05/31 01:21:27;;;;;;;8.07;3.72;;;;;;;18.83;65.12;100858.19;5069269;28;20073;-67
2021/05/31 01:24:03;;;;;;;4.85;3.55;;;;;;;18.74;65.44;100852.97;5069718;28;20040;-67
2021/05/31 01:26:41;;;;;;;7.10;3.35;;;;;;;18.76;65.49;100855.63;5069933;28;20520;-66
2021/05/31 01:29:11;;;;;;;7.53;3.53;;;;;;;18.71;65.55;100866.38;5069007;28;20036;-65
2021/05/31 01:31:44;;;;;;;8.07;4.22;;;;;;;18.64;65.79;100862.06;5068785;28;20047;-67
2021/05/31 01:34:13;;;;;;;4.78;3.17;;;;;;;18.65;65.72;100856.66;5069466;28;20056;-67
2021/05/31 01:36:44;;;;;;;6.82;4.35;;;;;;;18.65;65.77;100851.31;5058282;28;20043;-66
2021/05/31 01:39:13;;;;;;;10.50;3.38;;;;;;;18.63;65.80;100863.84;5068818;28;20571;-66
2021/05/31 01:41:41;;;;;;;8.27;3.70;;;;;;;18.62;65.87;100855.84;5069505;28;20459;-66
2021/05/31 01:44:10;;;;;;;6.68;4.20;;;;;;;18.66;65.81;100860.22;5069510;28;20127;-66
2021/05/31 01:46:38;;;;;;;8.85;3.67;;;;;;;18.55;66.01;100857.72;5069276;28;20032;-66
2021/05/31 01:49:05;;;;;;;7.18;3.60;;;;;;;18.48;66.28;100861.38;5069227;28;20047;-66
2021/05/31 01:51:33;;;;;;;6.05;3.45;;;;;;;18.48;66.39;100856.03;5069438;28;20117;-65
2021/05/31 01:54:01;;;;;;;7.68;3.80;;;;;;;18.49;66.36;100851.56;5068817;28;20041;-64
2021/05/31 01:56:29;;;;;;;7.47;4.13;;;;;;;18.43;66.62;100855.22;5068308;28;20094;-65
2021/05/31 01:58:57;;;;;;;7.30;3.58;;;;;;;18.46;66.45;100855.16;5068708;28;20186;-65
2021/05/31 02:01:26;;;;;;;13.63;4.32;;;;;;;18.43;66.56;100860.56;5069573;28;20425;-67
2021/05/31 02:03:53;;;;;;;7.75;4.10;;;;;;;18.40;66.73;100855.25;5068625;28;20043;-66
2021/05/31 02:06:20;;;;;;;7.75;3.70;;;;;;;18.46;66.64;100854.25;5069150;28;20104;-66
2021/05/31 02:08:47;;;;;;;6.85;3.58;;;;;;;18.38;66.80;100845.50;5069140;28;20128;-66
2021/05/31 02:11:20;;;;;;;10.40;4.53;;;;;;;18.38;66.83;100841.00;5069111;28;20089;-66
2021/05/31 02:13:50;;;;;;;5.73;3.27;;;;;;;18.25;67.39;100844.78;5069388;28;20534;-66
2021/05/31 02:16:21;;;;;;;7.13;3.70;;;;;;;18.26;67.44;100846.53;5069001;28;20041;-66
2021/05/31 02:18:52;;;;;;;8.23;4.10;;;;;;;18.24;67.42;100845.69;5068572;28;20166;-66
2021/05/31 02:21:21;;;;;;;9.07;3.58;;;;;;;18.24;67.40;100841.25;5068781;28;20090;-67
2021/05/31 02:23:49;;;;;;;8.30;3.45;;;;;;;18.21;67.39;100838.59;5068655;28;20036;-66
2021/05/31 02:26:19;;;;;;;10.05;3.53;;;;;;;18.22;67.41;100844.84;5069258;28;20542;-66
2021/05/31 02:28:48;;;;;;;7.28;3.70;;;;;;;18.19;67.43;100840.41;5068407;28;20445;-66
2021/05/31 02:31:16;;;;;;;9.20;4.20;;;;;;;18.26;67.47;100835.84;5068691;28;20548;-66
2021/05/31 02:33:45;;;;;;;8.18;3.42;;;;;;;18.32;67.21;100828.63;5068665;28;20037;-66
2021/05/31 02:36:16;;;;;;;7.35;3.05;;;;;;;18.30;67.23;100833.13;5068735;28;20455;-66
2021/05/31 02:38:43;;;;;;;6.00;3.38;;;;;;;18.20;67.32;100835.94;5068642;28;20110;-66
2021/05/31 02:41:10;;;;;;;8.10;3.45;;;;;;;18.12;67.60;100837.84;5068798;28;20048;-65
2021/05/31 02:43:38;;;;;;;7.72;3.38;;;;;;;18.06;67.80;100833.47;5068890;28;20178;-66
2021/05/31 02:46:05;;;;;;;6.70;3.53;;;;;;;18.08;67.70;100838.78;5068629;28;20064;-65
2021/05/31 02:48:32;;;;;;;9.30;3.63;;;;;;;18.08;67.79;100833.44;5069108;28;20086;-66
2021/05/31 02:50:59;;;;;;;9.32;3.53;;;;;;;18.05;67.53;100839.72;5068671;28;20106;-66
2021/05/31 02:53:29;;;;;;;8.32;3.70;;;;;;;18.02;67.82;100830.88;5067900;28;20064;-66
2021/05/31 02:55:57;;;;;;;7.70;3.40;;;;;;;18.00;67.84;100833.56;5068127;28;20121;-66
2021/05/31 02:58:24;;;;;;;10.63;4.07;;;;;;;17.92;67.86;100828.31;5068549;28;20071;-66
2021/05/31 03:00:50;;;;;;;6.80;3.92;;;;;;;17.91;68.02;100826.56;5071703;28;20064;-66
2021/05/31 03:03:17;;;;;;;9.75;3.47;;;;;;;17.96;67.89;100821.16;5071859;28;20031;-66
2021/05/31 03:05:44;;;;;;;11.00;3.95;;;;;;;17.87;68.04;100826.59;5071841;28;20441;-66
2021/05/31 03:08:11;;;;;;;6.15;3.58;;;;;;;17.87;68.20;100835.50;5072271;28;20049;-66
2021/05/31 03:10:40;;;;;;;6.70;3.58;;;;;;;17.92;68.05;100827.41;5072486;28;20108;-66
2021/05/31 03:13:08;;;;;;;10.57;3.70;;;;;;;17.97;67.99;100827.38;5072177;28;20048;-66
2021/05/31 03:15:35;;;;;;;5.97;3.50;;;;;;;17.99;67.99;100825.56;5072193;28;20036;-66
2021/05/31 03:18:02;;;;;;;6.95;3.30;;;;;;;18.03;67.96;100833.53;5071209;28;20049;-66
2021/05/31 03:20:30;;;;;;;7.65;3.95;;;;;;;18.06;68.06;100838.81;5072029;28;20036;-65
2021/05/31 03:23:00;;;;;;;10.10;3.67;;;;;;;18.13;67.90;100843.16;5072364;28;20047;-65
2021/05/31 03:25:28;;;;;;;7.75;3.47;;;;;;;18.20;67.80;100839.50;5071796;28;20062;-65
2021/05/31 03:27:58;;;;;;;9.65;3.53;;;;;;;18.37;67.62;100843.72;5071457;28;20051;-66
2021/05/31 03:30:25;;;;;;;9.18;3.95;;;;;;;18.42;67.42;100845.44;5072232;28;20044;-65
2021/05/31 03:32:53;;;;;;;7.82;3.28;;;;;;;18.49;68.05;100848.88;5072020;28;20047;-66
2021/05/31 03:35:20;;;;;;;6.28;3.08;;;;;;;18.61;67.68;100854.97;5071795;28;20136;-66
2021/05/31 03:37:48;;;;;;;7.90;2.90;;;;;;;18.75;68.11;100854.75;5072088;28;20036;-66
2021/05/31 03:40:20;;;;;;;10.13;3.00;;;;;;;18.90;67.88;100851.81;5070987;28;20036;-66
2021/05/31 03:42:48;;;;;;;8.32;3.28;;;;;;;19.08;67.13;100858.63;5071007;28;20381;-66
2021/05/31 03:45:17;;;;;;;8.45;3.50;;;;;;;19.23;67.15;100860.16;5051948;28;20451;-66
2021/05/31 03:47:44;;;;;;;5.35;2.67;;;;;;;19.38;66.99;100870.56;5051538;28;20033;-66
2021/05/31 03:50:12;;;;;;;7.20;2.72;;;;;;;19.46;66.85;100871.34;5051679;28;20049;-66
2021/05/31 03:52:39;;;;;;;4.97;2.50;;;;;;;19.66;66.92;100874.50;5055675;28;20052;-66
2021/05/31 03:55:08;;;;;;;6.50;3.05;;;;;;;19.81;66.31;100866.19;5071573;28;20109;-66
2021/05/31 03:57:37;;;;;;;9.82;2.85;;;;;;;19.96;66.20;100864.94;5071644;28;20039;-65
2021/05/31 04:00:04;;;;;;;6.25;2.28;;;;;;;19.99;64.77;100859.53;5071654;28;20048;-66
2021/05/31 04:02:33;;;;;;;6.40;2.17;;;;;;;20.05;64.60;100867.44;5071740;28;20123;-66
2021/05/31 04:05:00;;;;;;;5.30;2.58;;;;;;;20.23;64.51;100863.47;5071780;28;20055;-66
2021/05/31 04:12:57;;;;;;;7.15;2.30;;;;;;;20.93;63.43;100870.78;5051382;28;20049;-66
2021/05/31 04:15:24;;;;;;;5.15;1.85;;;;;;;21.19;62.51;100874.63;5051457;28;20037;-66
2021/05/31 04:17:53;;;;;;;6.47;2.03;;;;;;;21.45;62.13;100880.19;5050997;28;20041;-67
2021/05/31 04:20:22;;;;;;;7.88;3.25;;;;;;;21.64;61.65;100876.06;5051169;28;20102;-66
2021/05/31 04:22:49;;;;;;;8.05;2.30;;;;;;;21.84;60.87;100879.06;5056317;28;20041;-66
2021/05/31 04:25:16;;;;;;;7.93;2.15;;;;;;;22.06;60.31;100887.41;5070922;28;20124;-67
2021/05/31 04:27:43;;;;;;;7.13;2.38;;;;;;;22.21;59.15;100880.69;5070904;28;20551;-67
2021/05/31 04:30:12;;;;;;;7.32;2.58;;;;;;;22.45;58.03;100874.53;5070706;28;20044;-67
2021/05/31 04:32:39;;;;;;;7.38;2.65;;;;;;;22.75;57.90;100882.63;5069533;28;20051;-64
2021/05/31 04:35:10;;;;;;;7.32;1.95;;;;;;;23.08;57.11;100886.88;5070976;28;20627;-64
2021/05/31 04:37:37;;;;;;;4.68;1.98;;;;;;;23.37;56.02;100893.94;5070566;28;20064;-64
2021/05/31 04:40:05;;;;;;;7.57;2.08;;;;;;;23.63;55.65;100883.16;5070977;28;20124;-64
2021/05/31 04:42:32;;;;;;;7.18;2.17;;;;;;;23.96;54.47;100889.09;5069823;28;20041;-64
2021/05/31 04:44:59;;;;;;;9.55;1.90;;;;;;;24.30;53.86;100885.16;5070572;28;20066;-64
2021/05/31 04:47:26;;;;;;;8.63;1.92;;;;;;;24.63;53.14;100895.50;5069972;28;20043;-65
2021/05/31 04:49:55;;;;;;;9.07;2.88;;;;;;;24.96;52.68;100889.69;5070539;28;20093;-64
2021/05/31 04:52:24;;;;;;;8.40;2.13;;;;;;;25.28;51.44;100891.91;5070183;28;20048;-64
2021/05/31 04:54:52;;;;;;;7.68;2.00;;;;;;;25.52;50.80;100889.97;5070245;28;20033;-64
2021/05/31 04:57:19;;;;;;;4.70;1.80;;;;;;;25.74;49.75;100890.78;5070461;28;20051;-64
2021/05/31 04:59:46;;;;;;;8.07;2.58;;;;;;;25.96;48.95;100896.13;5070284;28;20145;-64
2021/05/31 05:02:13;;;;;;;7.07;2.10;;;;;;;26.25;48.06;100893.94;5069828;28;20147;-65
2021/05/31 05:04:40;;;;;;;7.85;1.70;;;;;;;26.52;47.67;100896.19;5070238;28;20062;-64
2021/05/31 05:07:07;;;;;;;8.50;1.83;;;;;;;26.69;47.09;100891.78;5069984;28;20072;-64
2021/05/31 05:09:36;;;;;;;7.28;2.35;;;;;;;26.91;47.01;100890.66;5070003;28;20112;-64
2021/05/31 05:12:04;;;;;;;9.10;2.40;;;;;;;26.98;47.14;100885.81;5069930;28;20507;-65
2021/05/31 05:14:31;;;;;;;6.78;2.03;;;;;;;27.17;47.00;100881.25;5064187;28;20509;-63
2021/05/31 05:16:58;;;;;;;7.07;2.17;;;;;;;27.38;47.54;100876.53;5068071;28;20424;-64
2021/05/31 05:19:25;;;;;;;7.78;1.85;;;;;;;27.55;47.05;100871.16;5057850;28;20448;-64
2021/05/31 05:21:52;;;;;;;6.18;1.95;;;;;;;27.69;47.14;100876.72;5067841;28;20148;-65
2021/05/31 05:24:20;;;;;;;4.22;1.92;;;;;;;27.82;46.81;100878.75;5069526;28;20560;-64
2021/05/31 05:26:49;;;;;;;4.32;1.90;;;;;;;27.89;46.97;100878.34;5069169;28;20060;-64
2021/05/31 05:29:15;;;;;;;6.32;2.20;;;;;;;28.07;46.13;100881.88;5069712;28;20044;-64
2021/05/31 05:31:42;;;;;;;5.95;2.10;;;;;;;28.07;46.42;100880.06;5069377;28;20037;-65
2021/05/31 05:34:10;;;;;;;8.32;2.20;;;;;;;28.24;45.57;100887.28;5068650;28;20127;-64
2021/05/31 05:36:45;;;;;;;6.68;2.42;;;;;;;28.36;45.28;100900.19;5069570;28;20043;-64
2021/05/31 05:39:41;;;;;;;7.32;2.38;;;;;;;28.53;44.65;100889.25;5069353;28;20044;-64
2021/05/31 05:42:23;;;;;;;7.80;2.20;;;;;;;28.79;44.79;100892.34;5068924;28;20563;-64
2021/05/31 05:45:15;;;;;;;5.95;2.00;;;;;;;28.78;44.78;100896.91;5069319;28;20033;-64
2021/05/31 05:47:43;;;;;;;5.72;2.25;;;;;;;28.60;44.74;100889.78;5068150;28;20029;-64
2021/05/31 05:50:14;;;;;;;6.85;1.75;;;;;;;28.76;44.16;100889.78;5068642;28;20052;-64
2021/05/31 05:52:43;;;;;;;7.38;2.20;;;;;;;28.93;44.55;100889.72;5069329;28;20115;-65
2021/05/31 05:55:11;;;;;;;4.68;1.73;;;;;;;29.06;43.93;100890.75;5068694;28;20119;-64
2021/05/31 05:57:41;;;;;;;5.13;1.83;;;;;;;28.92;43.57;100883.41;5068478;28;20040;-64
2021/05/31 06:00:11;;;;;;;4.18;2.13;;;;;;;29.05;43.44;100886.25;5068715;28;20076;-65
2021/05/31 06:02:38;;;;;;;6.35;2.03;;;;;;;29.09;43.28;100886.94;5068512;28;20064;-65
2021/05/31 06:05:06;;;;;;;5.80;2.25;;;;;;;29.42;42.93;100886.81;5068981;28;20093;-64
2021/05/31 06:07:33;;;;;;;4.85;2.10;;;;;;;29.34;42.79;100883.69;5069484;28;20094;-65
2021/05/31 06:10:00;;;;;;;8.43;2.70;;;;;;;29.34;42.60;100887.28;5068897;28;20119;-65
2021/05/31 06:12:28;;;;;;;5.97;1.88;;;;;;;29.16;42.93;100881.06;5068452;28;20425;-65
2021/05/31 06:14:56;;;;;;;7.45;2.20;;;;;;;29.25;42.88;100890.53;5069149;28;20522;-64
2021/05/31 06:17:23;;;;;;;4.85;2.15;;;;;;;29.52;42.14;100888.88;5069144;28;21575;-66
2021/05/31 06:19:50;;;;;;;5.35;2.03;;;;;;;29.75;42.19;100890.19;5065658;28;20056;-65
2021/05/31 06:22:17;;;;;;;5.68;2.17;;;;;;;29.68;42.03;100889.69;5055974;28;20066;-67
2021/05/31 06:24:44;;;;;;;3.67;1.60;;;;;;;29.54;42.02;100884.19;5067629;28;20123;-66
2021/05/31 06:27:11;;;;;;;5.18;2.05;;;;;;;29.67;41.76;100884.31;5066221;28;20052;-66
2021/05/31 06:29:38;;;;;;;5.93;2.00;;;;;;;29.75;41.85;100879.28;5066481;28;20037;-66
2021/05/31 06:32:07;;;;;;;7.38;2.10;;;;;;;29.74;41.89;100880.25;5068572;28;20136;-67
2021/05/31 06:34:35;;;;;;;5.30;1.85;;;;;;;29.80;41.56;100876.31;5069417;28;20511;-67
2021/05/31 06:37:02;;;;;;;5.95;1.98;;;;;;;29.66;41.19;100883.47;5072400;28;20526;-67
2021/05/31 06:39:29;;;;;;;5.30;2.10;;;;;;;29.42;41.76;100873.19;5073055;28;20496;-66
2021/05/31 06:41:56;;;;;;;7.22;2.50;;;;;;;29.45;41.77;100871.19;5072395;28;20142;-66
2021/05/31 06:44:23;;;;;;;7.05;2.53;;;;;;;29.51;41.75;100868.09;5070406;28;20131;-66
2021/05/31 06:46:50;;;;;;;3.70;1.65;;;;;;;29.55;41.62;100872.34;5072753;28;20421;-66
2021/05/31 06:49:19;;;;;;;6.43;1.90;;;;;;;29.86;41.63;100875.91;5072877;28;20044;-67
2021/05/31 06:51:47;;;;;;;5.68;2.15;;;;;;;30.15;41.16;100874.09;5072396;28;20540;-66
2021/05/31 06:54:14;;;;;;;5.00;1.48;;;;;;;30.23;40.73;100872.63;5072359;28;20052;-66
2021/05/31 06:56:41;;;;;;;5.35;1.92;;;;;;;30.25;40.05;100870.69;5085878;28;20036;-67
2021/05/31 06:59:08;;;;;;;6.75;1.65;;;;;;;30.40;39.98;100874.25;5080841;28;20041;-66
2021/05/31 07:01:35;;;;;;;4.53;1.88;;;;;;;30.56;39.41;100874.16;5072158;28;20025;-67
2021/05/31 07:04:03;;;;;;;6.72;1.88;;;;;;;30.39;39.20;100870.66;5071135;28;20457;-66
2021/05/31 07:06:32;;;;;;;5.30;1.90;;;;;;;30.10;39.69;100868.94;5071753;28;20119;-66
2021/05/31 07:08:59;;;;;;;5.47;1.83;;;;;;;30.06;39.40;100873.69;5068163;28;20412;-66
2021/05/31 07:11:26;;;;;;;10.45;2.30;;;;;;;30.18;39.35;100865.72;5051991;28;20120;-64
2021/05/31 07:13:55;;;;;;;6.60;2.75;;;;;;;30.12;39.36;100856.09;5052622;28;20092;-64
2021/05/31 07:16:22;;;;;;;9.10;2.25;;;;;;;30.19;39.35;100864.75;5053221;28;20063;-64
2021/05/31 07:18:49;;;;;;;6.20;1.77;;;;;;;30.23;39.26;100866.31;5052501;28;20040;-64
2021/05/31 07:21:16;;;;;;;6.55;1.83;;;;;;;30.26;39.23;100863.41;5071417;28;20049;-65
2021/05/31 07:23:44;;;;;;;3.05;1.73;;;;;;;30.39;39.21;100876.09;5072370;28;20028;-64
2021/05/31 07:26:11;;;;;;;4.88;2.03;;;;;;;30.55;39.30;100872.41;5071865;28;20116;-64
2021/05/31 07:28:38;;;;;;;6.20;2.05;;;;;;;30.67;38.85;100880.66;5068228;28;20041;-64
2021/05/31 07:31:06;;;;;;;5.38;1.80;;;;;;;30.72;39.44;100878.50;5052442;28;20556;-64
2021/05/31 07:33:33;;;;;;;8.30;1.90;;;;;;;30.80;39.20;100872.53;5049945;28;20063;-64
2021/05/31 07:36:02;;;;;;;7.03;2.50;;;;;;;30.66;39.45;100880.75;5047686;28;20044;-64
2021/05/31 07:38:33;;;;;;;6.88;2.38;;;;;;;30.25;40.67;100870.69;5056116;28;20067;-64
2021/05/31 07:41:02;;;;;;;4.72;2.00;;;;;;;30.22;41.51;100886.34;5056581;28;20048;-65
2021/05/31 07:43:29;;;;;;;5.35;2.22;;;;;;;30.32;41.56;100887.53;5057896;28;20049;-65
2021/05/31 07:45:55;;;;;;;4.97;2.58;;;;;;;30.19;42.19;100878.38;5050081;28;20052;-65
2021/05/31 07:48:22;;;;;;;3.92;2.10;;;;;;;30.29;42.04;100880.41;5051179;28;20125;-65
2021/05/31 07:50:50;;;;;;;9.05;2.50;;;;;;;30.55;41.55;100876.00;5056019;28;20064;-64
2021/05/31 07:53:21;;;;;;;4.88;2.20;;;;;;;30.55;41.04;100881.47;5061415;28;20044;-64
2021/05/31 07:55:48;;;;;;;5.40;2.33;;;;;;;30.55;40.77;100886.91;5051211;28;20045;-65
2021/05/31 07:58:17;;;;;;;3.97;2.65;;;;;;;30.28;41.85;100883.22;5051186;28;20079;-65
2021/05/31 08:00:44;;;;;;;6.82;3.03;;;;;;;29.97;42.47;100884.31;5065125;28;20092;-65
2021/05/31 08:03:11;;;;;;;6.57;2.38;;;;;;;30.09;41.77;100895.31;5055634;28;20543;-65
2021/05/31 08:05:38;;;;;;;7.20;2.75;;;;;;;29.88;42.07;100885.72;5051155;28;20124;-65
2021/05/31 08:08:05;;;;;;;7.10;2.67;;;;;;;29.86;42.60;100884.97;5052795;28;20120;-64
2021/05/31 08:10:32;;;;;;;5.85;2.70;;;;;;;29.69;42.69;100876.94;5051252;28;20047;-65
2021/05/31 08:12:59;;;;;;;5.93;2.63;;;;;;;29.88;42.73;100883.00;5050856;28;20487;-64
2021/05/31 08:15:28;;;;;;;3.95;2.20;;;;;;;29.75;42.63;100887.44;5067162;28;20496;-64
2021/05/31 08:17:55;;;;;;;4.80;2.65;;;;;;;29.73;42.62;100881.25;5050513;28;20512;-64
2021/05/31 08:20:22;;;;;;;7.50;2.33;;;;;;;29.69;42.67;100891.44;5050744;28;20037;-65
2021/05/31 08:22:49;;;;;;;6.43;2.63;;;;;;;29.65;42.42;100892.59;5055882;28;20515;-65
2021/05/31 08:25:16;;;;;;;7.85;2.63;;;;;;;29.48;43.21;100887.31;5052619;28;20135;-65
2021/05/31 08:27:44;;;;;;;6.72;3.08;;;;;;;29.55;43.18;100887.81;4983879;28;1913802;-65
2021/05/31 08:30:12;;;;;;;8.40;2.60;;;;;;;29.70;42.99;100892.31;5051564;28;20143;-65
2021/05/31 08:32:40;;;;;;;4.53;2.50;;;;;;;29.71;42.67;100896.78;5061715;28;20037;-65
2021/05/31 08:35:09;;;;;;;4.05;2.03;;;;;;;30.19;41.67;100894.72;5067025;28;20041;-66
2021/05/31 08:37:36;;;;;;;6.05;2.25;;;;;;;29.87;41.74;100896.69;5060648;28;20053;-64
2021/05/31 08:40:04;;;;;;;5.53;2.67;;;;;;;29.89;41.29;100892.91;5052222;28;20039;-64
2021/05/31 08:42:32;;;;;;;4.75;2.28;;;;;;;29.88;41.16;100907.50;5062229;28;20037;-65
2021/05/31 08:45:00;;;;;;;6.93;2.53;;;;;;;29.83;41.16;100901.47;5057349;28;20132;-65
2021/05/31 08:47:28;;;;;;;3.20;2.22;;;;;;;29.46;41.36;100902.00;5059338;28;20044;-65
2021/05/31 08:49:57;;;;;;;4.60;2.30;;;;;;;29.55;41.77;100902.28;5064159;28;20427;-65
2021/05/31 08:52:23;;;;;;;5.95;2.83;;;;;;;29.38;42.37;100916.06;5050781;28;20128;-64
2021/05/31 08:54:50;;;;;;;4.75;2.20;;;;;;;29.47;42.12;100904.59;5051317;28;20437;-64
2021/05/31 08:57:17;;;;;;;4.85;2.20;;;;;;;29.73;41.30;100911.19;5049243;28;20087;-65
2021/05/31 08:59:44;;;;;;;7.45;2.90;;;;;;;29.52;41.94;100899.78;5050933;28;20090;-64
2021/05/31 09:02:12;;;;;;;3.65;2.22;;;;;;;29.90;41.82;100894.69;5075997;28;20411;-64
2021/05/31 09:04:46;;;;;;;4.80;1.90;;;;;;;29.93;40.82;100890.94;5062478;28;20041;-64
2021/05/31 09:07:14;;;;;;;6.28;2.05;;;;;;;29.88;41.27;100895.72;5051509;28;20071;-64
2021/05/31 09:09:42;;;;;;;6.68;2.13;;;;;;;29.89;41.54;100892.03;5057754;28;20033;-64
2021/05/31 09:12:10;;;;;;;4.40;2.10;;;;;;;29.94;41.07;100885.38;5065495;28;20041;-64
2021/05/31 09:14:39;;;;;;;8.90;2.50;;;;;;;29.87;40.89;100886.69;5054110;28;20123;-64
2021/05/31 09:17:06;;;;;;;4.25;1.70;;;;;;;30.14;40.04;100885.94;5053772;28;20404;-64
2021/05/31 09:19:34;;;;;;;6.13;2.10;;;;;;;30.23;39.74;100885.38;5065711;28;20098;-64
2021/05/31 09:22:04;;;;;;;4.53;2.05;;;;;;;30.00;40.55;100890.41;5054539;28;20045;-64
2021/05/31 09:24:33;;;;;;;4.38;1.60;;;;;;;30.07;39.73;100883.63;5066850;28;20040;-65
2021/05/31 09:27:00;;;;;;;5.05;2.03;;;;;;;30.12;39.33;100885.19;5068918;28;20040;-64
2021/05/31 09:29:28;;;;;;;3.67;1.92;;;;;;;30.27;39.63;100895.09;5068583;28;20044;-65
2021/05/31 09:32:00;;;;;;;4.57;1.65;;;;;;;30.51;39.37;100885.38;5059815;28;20122;-65
2021/05/31 09:34:27;;;;;;;4.90;1.92;;;;;;;30.54;39.09;100873.38;5057982;28;20060;-64
2021/05/31 09:36:56;;;;;;;4.88;1.90;;;;;;;30.58;38.41;100875.81;5049777;28;20043;-64
2021/05/31 09:39:29;;;;;;;4.95;2.20;;;;;;;30.84;38.03;100880.44;5049943;28;20041;-64
2021/05/31 09:42:06;;;;;;;5.43;2.13;;;;;;;30.97;37.57;100874.13;5054473;28;20044;-64
2021/05/31 09:44:34;;;;;;;3.47;1.48;;;;;;;30.49;38.05;100871.84;5054530;28;20099;-65
2021/05/31 09:47:00;;;;;;;5.97;1.60;;;;;;;30.53;38.15;100869.78;5050112;28;20052;-64
2021/05/31 09:49:27;;;;;;;3.10;1.60;;;;;;;30.92;36.89;100866.25;5049526;28;20045;-65
2021/05/31 09:52:00;;;;;;;3.50;1.85;;;;;;;31.18;35.96;100869.97;5049081;28;20044;-65
2021/05/31 09:54:35;;;;;;;6.55;1.50;;;;;;;31.02;36.08;100870.13;5052942;28;20040;-65
2021/05/31 09:57:17;;;;;;;4.68;1.77;;;;;;;30.92;36.62;100860.78;5069198;28;20063;-64
2021/05/31 09:59:49;;;;;;;4.03;1.80;;;;;;;31.07;36.58;100861.66;5068410;28;20056;-65
2021/05/31 10:02:21;;;;;;;3.75;1.70;;;;;;;31.24;36.69;100864.13;5069045;28;20060;-65
2021/05/31 10:04:57;;;;;;;4.35;1.90;;;;;;;31.21;36.46;100867.91;5069670;28;20043;-65
2021/05/31 10:07:38;;;;;;;5.50;1.80;;;;;;;30.98;36.97;100878.63;5068637;28;20128;-65
2021/05/31 10:10:06;;;;;;;3.95;1.85;;;;;;;30.75;37.01;100875.56;5059281;28;20052;-65
2021/05/31 10:12:37;;;;;;;5.45;2.33;;;;;;;30.52;37.51;100870.78;5067849;28;20041;-65
2021/05/31 10:15:06;;;;;;;7.25;1.98;;;;;;;30.41;37.60;100876.00;5069297;28;20043;-65
2021/05/31 10:17:33;;;;;;;4.72;2.00;;;;;;;30.42;37.71;100877.75;5068928;28;20044;-65
2021/05/31 10:20:02;;;;;;;7.65;1.77;;;;;;;30.33;37.75;100876.50;5059625;28;20051;-64
2021/05/31 10:22:32;;;;;;;5.13;2.10;;;;;;;30.07;38.39;100880.88;5051081;28;20122;-65
2021/05/31 10:25:01;;;;;;;3.22;1.80;;;;;;;29.79;38.94;100878.16;5062780;28;20041;-65
2021/05/31 10:27:30;;;;;;;4.25;1.90;;;;;;;29.62;39.14;100881.00;5048900;28;20041;-65
2021/05/31 10:30:00;;;;;;;6.72;2.17;;;;;;;29.48;39.03;100870.09;5050698;28;20069;-66
2021/05/31 10:32:27;;;;;;;5.22;2.00;;;;;;;29.66;38.97;100880.75;5068215;28;20082;-66
2021/05/31 10:34:55;;;;;;;3.90;2.00;;;;;;;29.69;38.38;100872.38;5066961;28;20087;-65
2021/05/31 10:37:25;;;;;;;6.72;2.45;;;;;;;29.85;38.14;100877.75;5068210;28;20061;-66
2021/05/31 10:40:13;;;;;;;5.28;1.90;;;;;;;29.84;37.86;100878.72;5067805;28;20060;-65
2021/05/31 10:42:46;;;;;;;6.15;2.40;;;;;;;30.17;37.59;100873.03;5065501;28;20049;-66
2021/05/31 10:45:26;;;;;;;5.47;1.90;;;;;;;30.15;37.48;100885.84;5051833;28;20052;-64
2021/05/31 10:48:07;;;;;;;3.30;1.92;;;;;;;30.20;37.89;100880.97;5067486;28;20277;-65
2021/05/31 10:50:37;;;;;;;5.82;1.88;;;;;;;30.33;37.36;100873.75;5068589;28;20120;-65
2021/05/31 10:53:07;;;;;;;6.38;2.00;;;;;;;30.45;36.45;100878.44;5067700;28;20044;-65
2021/05/31 10:55:34;;;;;;;5.18;1.90;;;;;;;30.60;36.13;100884.75;5060325;28;20458;-65
2021/05/31 10:58:01;;;;;;;4.93;1.98;;;;;;;30.86;35.85;100877.56;5049424;28;20404;-66
2021/05/31 11:00:33;;;;;;;4.97;2.00;;;;;;;30.72;35.84;100883.94;5064498;28;20039;-65
2021/05/31 11:03:09;;;;;;;5.32;1.70;;;;;;;30.53;36.53;100883.41;5050393;28;20044;-65
2021/05/31 11:05:38;;;;;;;5.32;2.13;;;;;;;30.48;36.40;100877.34;5056150;28;20049;-66
2021/05/31 11:08:07;;;;;;;4.45;2.05;;;;;;;30.23;37.13;100871.75;5055220;28;20041;-65
2021/05/31 11:10:37;;;;;;;3.42;1.80;;;;;;;30.46;36.83;100879.28;5046566;28;20404;-64
2021/05/31 11:13:15;;;;;;;7.55;1.85;;;;;;;31.02;35.73;100871.97;5048621;28;20049;-65
2021/05/31 11:15:44;;;;;;;7.15;1.88;;;;;;;30.97;36.27;100877.75;5051134;28;20675;-66
2021/05/31 11:18:25;;;;;;;5.07;1.88;;;;;;;30.92;36.42;100879.03;5055983;28;20504;-66
2021/05/31 11:20:52;;;;;;;5.97;2.00;;;;;;;31.15;35.85;100873.78;5063190;28;20040;-65
2021/05/31 11:23:19;;;;;;;5.25;2.00;;;;;;;31.91;34.62;100873.03;5062448;28;20043;-65
2021/05/31 11:25:48;;;;;;;6.35;1.77;;;;;;;32.31;33.61;100873.78;5063664;28;20123;-65
2021/05/31 11:28:16;;;;;;;5.57;1.83;;;;;;;31.83;34.41;100867.28;5056890;28;20036;-65
2021/05/31 11:30:46;;;;;;;3.90;1.90;;;;;;;31.79;34.19;100865.72;5058462;28;20046;-65
2021/05/31 11:33:15;;;;;;;7.43;1.63;;;;;;;31.67;34.07;100865.63;5060836;28;20683;-66
2021/05/31 11:35:46;;;;;;;4.13;1.67;;;;;;;32.05;33.28;100856.53;5065341;28;20583;-65
2021/05/31 11:38:14;;;;;;;4.18;1.58;;;;;;;32.29;32.93;100865.72;5066599;28;20558;-65